Terminal Aerodrome Forecast
Issued by NWS Upton, NY

Home | Current Version | Previous Version | Text Only | Print | Product List | Glossary On
Versions: 1 2 3 4 5 6 7 8 9 10 11 12 13 14 15 16 17 18 19 20 21 22 23 24 25 26 27 28 29 30 31 32 33
000
FTUS41 KOKX 240542
TAFJFK
TAF
KJFK 240542Z 2406/2512 VRB04KT P6SM FEW080 BKN130
     FM240700 04007KT 6SM -RA FEW035 OVC080
     FM241200 04010G17KT 6SM -RA BKN035 OVC080
     FM241500 05010KT P6SM SCT035 OVC060
     FM242100 07010KT P6SM FEW030 OVC060
     FM250300 09013KT 6SM -RA BKN020 OVC040
     FM250800 07014KT 6SM -RA BR BKN007 OVC020=

USA.gov is the U.S. government's official web portal to all federal, state and local government web resources and services.